createdAt,value
2022-11-26T00:01:22.552Z,5.40
2022-11-26T00:03:49.799Z,5.30
2022-11-26T00:06:36.644Z,5.30
2022-11-26T00:09:06.370Z,5.30
2022-11-26T00:11:33.385Z,5.30
2022-11-26T00:14:00.296Z,5.30
2022-11-26T00:16:29.406Z,5.30
2022-11-26T00:18:56.259Z,5.40
2022-11-26T00:21:26.943Z,5.40
2022-11-26T00:23:55.167Z,5.40
2022-11-26T00:26:24.415Z,5.40
2022-11-26T00:29:01.326Z,5.40
2022-11-26T00:31:29.287Z,5.40
2022-11-26T00:33:56.609Z,5.40
2022-11-26T00:36:30.433Z,5.30
2022-11-26T00:39:02.858Z,5.30
2022-11-26T00:41:33.991Z,5.20
2022-11-26T00:44:01.054Z,5.20
2022-11-26T00:46:28.107Z,5.20
2022-11-26T00:48:55.042Z,5.20
2022-11-26T00:51:28.574Z,5.10
2022-11-26T00:53:59.263Z,5.10
2022-11-26T00:56:26.357Z,5.10
2022-11-26T00:58:53.223Z,5.10
2022-11-26T01:01:23.126Z,5.20
2022-11-26T01:03:50.191Z,5.20
2022-11-26T01:06:39.210Z,5.10
2022-11-26T01:09:07.617Z,5.20
2022-11-26T01:11:34.443Z,5.10
2022-11-26T01:14:01.473Z,5.20
2022-11-26T01:16:31.325Z,5.10
2022-11-26T01:18:59.941Z,5.10
2022-11-26T01:21:28.673Z,5.10
2022-11-26T01:23:55.972Z,5.10
2022-11-26T01:26:28.714Z,5.10
2022-11-26T01:28:55.954Z,5.00
2022-11-26T01:31:27.032Z,5.00
2022-11-26T01:33:54.576Z,5.00
2022-11-26T01:36:30.673Z,5.00
2022-11-26T01:39:21.662Z,5.00
2022-11-26T01:42:12.103Z,5.00
2022-11-26T01:44:39.477Z,5.00
2022-11-26T01:47:27.450Z,5.00
2022-11-26T01:50:28.646Z,5.00
2022-11-26T01:53:04.870Z,5.00
2022-11-26T01:55:38.578Z,5.00
2022-11-26T01:58:08.314Z,5.00
2022-11-26T02:00:35.359Z,5.00
2022-11-26T02:03:03.508Z,4.90
2022-11-26T02:05:34.853Z,5.00
2022-11-26T02:08:02.907Z,5.00
2022-11-26T02:10:29.987Z,5.00
2022-11-26T02:12:57.062Z,5.00
2022-11-26T02:15:29.713Z,4.90
2022-11-26T02:18:04.731Z,4.90
2022-11-26T02:20:57.355Z,5.00
2022-11-26T02:24:09.822Z,4.90
2022-11-26T02:27:06.291Z,4.90
2022-11-26T02:29:55.137Z,4.90
2022-11-26T02:32:39.177Z,4.90
2022-11-26T02:35:22.714Z,4.80
2022-11-26T02:37:57.914Z,4.80
2022-11-26T02:40:25.786Z,4.70
2022-11-26T02:42:52.696Z,4.70
2022-11-26T02:45:26.444Z,4.60
2022-11-26T02:47:57.526Z,4.60
2022-11-26T02:50:35.150Z,4.60
2022-11-26T02:53:04.418Z,4.50
2022-11-26T02:55:35.381Z,4.50
2022-11-26T02:58:02.543Z,4.40
2022-11-26T03:00:31.377Z,4.40
2022-11-26T03:03:10.780Z,4.30
2022-11-26T03:05:40.596Z,4.30
2022-11-26T03:08:07.926Z,4.30
2022-11-26T03:10:34.707Z,4.30
2022-11-26T03:13:01.542Z,4.30
2022-11-26T03:15:28.726Z,4.30
2022-11-26T03:17:55.642Z,4.30
2022-11-26T03:20:22.478Z,4.20
2022-11-26T03:22:49.466Z,4.20
2022-11-26T03:25:16.549Z,4.20
2022-11-26T03:27:43.400Z,4.20
2022-11-26T03:30:10.846Z,4.20
2022-11-26T03:32:37.658Z,4.20
2022-11-26T03:35:04.941Z,4.20
2022-11-26T03:37:32.021Z,4.20
2022-11-26T03:39:58.890Z,4.20
2022-11-26T03:42:25.883Z,4.20
2022-11-26T03:44:52.706Z,4.20
2022-11-26T03:47:19.585Z,4.20
2022-11-26T03:49:46.427Z,4.10
2022-11-26T03:52:13.280Z,4.10
2022-11-26T03:54:40.484Z,4.10
2022-11-26T03:57:07.512Z,4.10
2022-11-26T03:59:34.329Z,4.10
2022-11-26T04:02:01.134Z,4.10
2022-11-26T04:04:28.245Z,4.00
2022-11-26T04:06:55.242Z,4.00
2022-11-26T04:09:22.069Z,4.00
2022-11-26T04:11:49.116Z,4.00
2022-11-26T04:14:16.167Z,4.00
2022-11-26T04:16:43.143Z,3.90
2022-11-26T04:19:09.999Z,4.00
2022-11-26T04:21:36.832Z,3.90
2022-11-26T04:24:03.952Z,3.90
2022-11-26T04:26:30.814Z,3.90
2022-11-26T04:28:57.591Z,3.90
2022-11-26T04:31:24.477Z,4.00
2022-11-26T04:33:51.311Z,4.00
2022-11-26T04:36:18.092Z,4.00
2022-11-26T04:38:45.043Z,4.00
2022-11-26T04:41:11.870Z,4.00
2022-11-26T04:43:38.744Z,4.00
2022-11-26T04:46:05.799Z,4.00
2022-11-26T04:48:32.722Z,3.90
2022-11-26T04:50:59.546Z,3.90
2022-11-26T04:53:26.349Z,3.90
2022-11-26T04:55:53.491Z,3.90
2022-11-26T04:58:20.953Z,3.90
2022-11-26T05:00:51.056Z,3.90
2022-11-26T05:03:18.964Z,3.90
2022-11-26T05:05:47.148Z,3.90
2022-11-26T05:08:14.381Z,3.90
2022-11-26T05:10:41.251Z,3.90
2022-11-26T05:13:08.187Z,3.90
2022-11-26T05:15:35.090Z,3.90
2022-11-26T05:18:01.930Z,3.90
2022-11-26T05:20:28.752Z,3.90
2022-11-26T05:22:55.554Z,4.00
2022-11-26T05:25:22.360Z,3.90
2022-11-26T05:27:49.137Z,4.00
2022-11-26T05:30:16.297Z,4.00
2022-11-26T05:32:43.115Z,4.00
2022-11-26T05:35:10.222Z,4.00
2022-11-26T05:37:37.035Z,4.00
2022-11-26T05:40:04.412Z,4.00
2022-11-26T05:42:31.368Z,4.10
2022-11-26T05:44:58.138Z,4.10
2022-11-26T05:47:24.946Z,4.00
2022-11-26T05:49:51.822Z,4.10
2022-11-26T05:52:18.586Z,4.10
2022-11-26T05:54:45.461Z,4.10
2022-11-26T05:57:12.422Z,4.10
2022-11-26T05:59:39.255Z,4.10
2022-11-26T06:02:06.079Z,4.10
2022-11-26T06:04:33.066Z,4.10
2022-11-26T06:06:59.862Z,4.10
2022-11-26T06:09:26.706Z,4.10
2022-11-26T06:11:53.826Z,4.20
2022-11-26T06:14:20.597Z,4.20
2022-11-26T06:16:47.525Z,4.20
2022-11-26T06:19:14.773Z,4.20
2022-11-26T06:21:41.775Z,4.20
2022-11-26T06:24:08.611Z,4.20
2022-11-26T06:26:35.494Z,4.20
2022-11-26T06:29:02.346Z,4.20
2022-11-26T06:31:29.319Z,4.30
2022-11-26T06:33:56.708Z,4.20
2022-11-26T06:36:23.832Z,4.20
2022-11-26T06:38:51.172Z,4.30
2022-11-26T06:41:18.144Z,4.30
2022-11-26T06:43:45.096Z,4.30
2022-11-26T06:46:12.398Z,4.30
2022-11-26T06:48:40.136Z,4.30
2022-11-26T06:51:09.731Z,4.30
2022-11-26T06:53:36.838Z,4.40
2022-11-26T06:56:06.559Z,4.40
2022-11-26T06:58:34.174Z,4.40
2022-11-26T07:01:07.156Z,4.40
2022-11-26T07:03:34.054Z,4.40
2022-11-26T07:06:00.927Z,4.40
2022-11-26T07:08:27.851Z,4.40
2022-11-26T07:10:54.795Z,4.40
2022-11-26T07:13:21.665Z,4.40
2022-11-26T07:15:48.471Z,4.40
2022-11-26T07:18:15.526Z,4.40
2022-11-26T07:20:42.311Z,4.40
2022-11-26T07:23:09.172Z,4.40
2022-11-26T07:25:37.011Z,4.40
2022-11-26T07:28:04.028Z,4.40
2022-11-26T07:30:30.800Z,4.50
2022-11-26T07:32:57.679Z,4.50
2022-11-26T07:35:24.557Z,4.50
2022-11-26T07:37:51.354Z,4.50
2022-11-26T07:40:18.242Z,4.50
2022-11-26T07:42:49.137Z,4.50
2022-11-26T07:45:18.695Z,4.50
2022-11-26T07:47:45.555Z,4.50
2022-11-26T07:50:12.400Z,4.50
2022-11-26T07:52:39.163Z,4.50
2022-11-26T07:55:10.995Z,4.50
2022-11-26T07:57:39.310Z,4.60
2022-11-26T08:00:06.880Z,4.60
2022-11-26T08:02:33.787Z,4.70
2022-11-26T08:05:00.618Z,4.60
2022-11-26T08:07:29.452Z,4.70
2022-11-26T08:09:56.981Z,4.80
2022-11-26T08:12:23.939Z,4.90
2022-11-26T08:14:50.842Z,4.90
2022-11-26T08:17:17.700Z,4.90
2022-11-26T08:19:44.560Z,5.00
2022-11-26T08:22:11.389Z,5.10
2022-11-26T08:24:40.100Z,5.10
2022-11-26T08:27:07.525Z,5.20
2022-11-26T08:29:36.930Z,5.30
2022-11-26T08:32:04.277Z,5.30
2022-11-26T08:34:31.266Z,5.40
2022-11-26T08:36:58.063Z,5.40
2022-11-26T08:39:24.899Z,5.40
2022-11-26T08:41:52.840Z,5.50
2022-11-26T08:44:20.510Z,5.50
2022-11-26T08:46:47.657Z,5.40
2022-11-26T08:49:15.437Z,5.40
2022-11-26T08:51:43.408Z,5.40
2022-11-26T08:54:11.196Z,5.50
2022-11-26T08:56:38.096Z,5.50
2022-11-26T08:59:05.206Z,5.60
2022-11-26T09:01:33.688Z,5.60
2022-11-26T09:04:02.346Z,5.60
2022-11-26T09:06:31.014Z,5.70
2022-11-26T09:09:14.905Z,5.80
2022-11-26T09:12:02.920Z,5.80
2022-11-26T09:14:35.007Z,5.80
2022-11-26T09:17:01.926Z,5.90
2022-11-26T09:19:29.236Z,5.90
2022-11-26T09:21:56.339Z,5.90
2022-11-26T09:24:23.242Z,6.00
2022-11-26T09:26:50.473Z,6.00
2022-11-26T09:29:19.915Z,6.00
2022-11-26T09:32:21.802Z,6.00
2022-11-26T09:34:36.973Z,6.00
2022-11-26T09:37:04.161Z,6.00
2022-11-26T09:39:31.195Z,6.10
2022-11-26T09:42:13.875Z,6.10
2022-11-26T09:45:16.855Z,6.20
2022-11-26T09:47:47.945Z,6.20
2022-11-26T09:50:14.817Z,6.30
2022-11-26T09:52:58.744Z,6.30
2022-11-26T09:55:30.524Z,6.40
2022-11-26T09:58:29.668Z,6.40
2022-11-26T10:00:59.429Z,6.40
2022-11-26T10:03:33.517Z,6.40
2022-11-26T10:06:24.266Z,6.40
2022-11-26T10:09:03.033Z,6.50
2022-11-26T10:11:54.896Z,6.50
2022-11-26T10:14:47.144Z,6.50
2022-11-26T10:17:28.407Z,6.50
2022-11-26T10:20:04.597Z,6.60
2022-11-26T10:22:57.302Z,6.60
2022-11-26T10:25:29.063Z,6.60
2022-11-26T10:27:58.397Z,6.70
2022-11-26T10:30:30.793Z,6.60
2022-11-26T10:33:00.285Z,6.70
2022-11-26T10:35:29.395Z,6.70
2022-11-26T10:37:57.296Z,6.70
2022-11-26T10:40:30.185Z,6.70
2022-11-26T10:43:02.952Z,6.80
2022-11-26T10:45:51.527Z,6.80
2022-11-26T10:48:34.000Z,6.80
2022-11-26T10:51:17.643Z,6.90
2022-11-26T10:53:55.874Z,6.90
2022-11-26T10:56:36.518Z,7.00
2022-11-26T10:59:07.139Z,7.00
2022-11-26T11:01:38.591Z,7.00
2022-11-26T11:04:24.512Z,7.10
2022-11-26T11:06:51.590Z,7.10
2022-11-26T11:09:30.954Z,7.10
2022-11-26T11:12:18.557Z,7.20
2022-11-26T11:14:46.785Z,7.20
2022-11-26T11:17:34.305Z,7.20
2022-11-26T11:20:23.138Z,7.20
2022-11-26T11:23:05.755Z,7.30
2022-11-26T11:25:38.526Z,7.30
2022-11-26T11:28:14.932Z,7.30
2022-11-26T11:30:44.358Z,7.40
2022-11-26T11:33:24.393Z,7.40
2022-11-26T11:36:00.419Z,7.40
2022-11-26T11:38:30.043Z,7.50
2022-11-26T11:40:57.284Z,7.50
2022-11-26T11:43:25.278Z,7.60
2022-11-26T11:46:12.703Z,7.60
2022-11-26T11:48:47.829Z,7.70
2022-11-26T11:51:45.870Z,7.70
2022-11-26T11:54:34.608Z,7.80
2022-11-26T11:57:16.928Z,7.80
2022-11-26T12:00:18.879Z,7.80
2022-11-26T12:02:55.627Z,7.90
2022-11-26T12:05:54.858Z,7.90
2022-11-26T12:08:42.464Z,7.90
2022-11-26T12:11:39.670Z,8.00
2022-11-26T12:14:32.375Z,8.00
2022-11-26T12:17:06.752Z,8.00
2022-11-26T12:19:36.627Z,8.00
2022-11-26T12:22:20.823Z,8.10
2022-11-26T12:24:56.373Z,8.10
2022-11-26T12:27:47.519Z,8.10
2022-11-26T12:30:17.893Z,8.10
2022-11-26T12:33:00.866Z,8.10
2022-11-26T12:35:39.531Z,8.10
2022-11-26T12:38:17.611Z,8.10
2022-11-26T12:41:00.839Z,8.10
2022-11-26T12:43:36.743Z,8.10
2022-11-26T12:46:14.542Z,8.10
2022-11-26T12:49:08.983Z,8.10
2022-11-26T12:52:08.518Z,8.20
2022-11-26T12:54:54.106Z,8.20
2022-11-26T12:57:26.302Z,8.20
2022-11-26T13:00:00.912Z,8.20
2022-11-26T13:02:32.710Z,8.20
2022-11-26T13:04:59.838Z,8.20
2022-11-26T13:07:45.579Z,8.20
2022-11-26T13:10:35.742Z,8.20
2022-11-26T13:13:28.824Z,8.20
2022-11-26T13:16:06.293Z,8.20
2022-11-26T13:18:44.612Z,8.20
2022-11-26T13:21:31.083Z,8.30
2022-11-26T13:24:19.314Z,8.20
2022-11-26T13:27:15.215Z,8.20
2022-11-26T13:29:48.192Z,8.20
2022-11-26T13:32:39.852Z,8.20
2022-11-26T13:35:34.599Z,8.20
2022-11-26T13:38:31.446Z,8.20
2022-11-26T13:41:17.723Z,8.20
2022-11-26T13:44:07.119Z,8.30
2022-11-26T13:46:54.401Z,8.30
2022-11-26T13:49:39.738Z,8.20
2022-11-26T13:52:54.119Z,8.20
2022-11-26T13:55:29.583Z,8.20
2022-11-26T13:58:00.408Z,8.20
2022-11-26T14:00:33.075Z,8.20
2022-11-26T14:03:01.042Z,8.20
2022-11-26T14:05:49.770Z,8.20
2022-11-26T14:08:37.862Z,8.20
2022-11-26T14:11:05.667Z,8.20
2022-11-26T14:13:32.540Z,8.20
2022-11-26T14:16:02.736Z,8.10
2022-11-26T14:18:49.813Z,8.10
2022-11-26T14:21:18.128Z,8.10
2022-11-26T14:23:50.372Z,8.10
2022-11-26T14:26:24.841Z,8.10
2022-11-26T14:29:04.977Z,8.10
2022-11-26T14:31:34.121Z,8.10
2022-11-26T14:34:15.754Z,8.10
2022-11-26T14:36:58.717Z,8.00
2022-11-26T14:39:27.313Z,8.00
2022-11-26T14:42:01.976Z,8.00
2022-11-26T14:44:32.970Z,8.00
2022-11-26T14:47:07.740Z,8.00
2022-11-26T14:49:34.528Z,7.90
2022-11-26T14:52:05.030Z,7.90
2022-11-26T14:54:39.900Z,7.90
2022-11-26T14:57:13.679Z,7.90
2022-11-26T15:00:12.552Z,7.90
2022-11-26T15:02:42.036Z,7.90
2022-11-26T15:05:21.863Z,7.80
2022-11-26T15:08:01.593Z,7.80
2022-11-26T15:10:39.031Z,7.80
2022-11-26T15:13:24.259Z,7.80
2022-11-26T15:16:00.269Z,7.80
2022-11-26T15:18:35.092Z,7.70
2022-11-26T15:21:04.475Z,7.70
2022-11-26T15:23:36.858Z,7.70
2022-11-26T15:26:04.490Z,7.70
2022-11-26T15:28:38.226Z,7.70
2022-11-26T15:31:08.492Z,7.70
2022-11-26T15:33:37.569Z,7.60
2022-11-26T15:36:05.761Z,7.60
2022-11-26T15:38:35.413Z,7.60
2022-11-26T15:41:02.184Z,7.60
2022-11-26T15:43:33.511Z,7.60
2022-11-26T15:46:02.828Z,7.60
2022-11-26T15:48:53.667Z,7.60
2022-11-26T15:51:23.413Z,7.60
2022-11-26T15:53:51.247Z,7.60
2022-11-26T15:56:25.004Z,7.60
2022-11-26T15:58:57.189Z,7.60
2022-11-26T16:01:27.456Z,7.60
2022-11-26T16:03:55.751Z,7.60
2022-11-26T16:06:38.388Z,7.50
2022-11-26T16:09:14.920Z,7.60
2022-11-26T16:11:57.920Z,7.50
2022-11-26T16:14:35.037Z,7.50
2022-11-26T16:17:11.479Z,7.50
2022-11-26T16:19:44.566Z,7.50
2022-11-26T16:22:17.431Z,7.50
2022-11-26T16:24:44.840Z,7.50
2022-11-26T16:27:23.291Z,7.50
2022-11-26T16:29:50.228Z,7.50
2022-11-26T16:32:18.433Z,7.50
2022-11-26T16:34:45.492Z,7.50
2022-11-26T16:37:26.687Z,7.50
2022-11-26T16:40:01.075Z,7.50
2022-11-26T16:42:29.884Z,7.50
2022-11-26T16:45:01.263Z,7.50
2022-11-26T16:47:34.498Z,7.40
2022-11-26T16:50:02.686Z,7.40
2022-11-26T16:52:29.770Z,7.40
2022-11-26T16:54:56.685Z,7.30
2022-11-26T16:57:26.244Z,7.30
2022-11-26T16:59:57.289Z,7.30
2022-11-26T17:02:24.883Z,7.20
2022-11-26T17:04:51.810Z,7.20
2022-11-26T17:07:39.186Z,7.20
2022-11-26T17:10:07.142Z,7.20
2022-11-26T17:12:33.921Z,7.20
2022-11-26T17:15:00.863Z,7.10
2022-11-26T17:17:29.597Z,7.10
2022-11-26T17:19:56.940Z,7.10
2022-11-26T17:22:25.081Z,7.10
2022-11-26T17:24:52.052Z,7.00
2022-11-26T17:27:20.763Z,7.10
2022-11-26T17:29:48.049Z,7.00
2022-11-26T17:32:17.438Z,7.00
2022-11-26T17:34:45.750Z,7.00
2022-11-26T17:37:17.848Z,7.00
2022-11-26T17:39:44.727Z,6.90
2022-11-26T17:42:11.496Z,6.90
2022-11-26T17:44:38.320Z,6.90
2022-11-26T17:47:21.538Z,6.90
2022-11-26T17:49:49.553Z,6.90
2022-11-26T17:52:17.136Z,6.80
2022-11-26T17:54:45.220Z,6.80
2022-11-26T17:57:13.936Z,6.80
2022-11-26T17:59:41.526Z,6.80
2022-11-26T18:02:09.768Z,6.80
2022-11-26T18:04:37.342Z,6.70
2022-11-26T18:07:15.709Z,6.80
2022-11-26T18:09:42.963Z,6.70
2022-11-26T18:12:24.667Z,6.70
2022-11-26T18:14:53.673Z,6.70
2022-11-26T18:17:21.003Z,6.70
2022-11-26T18:19:48.007Z,6.70
2022-11-26T18:22:18.264Z,6.70
2022-11-26T18:24:56.427Z,6.60
2022-11-26T18:27:29.181Z,6.60
2022-11-26T18:29:55.997Z,6.60
2022-11-26T18:32:22.897Z,6.60
2022-11-26T18:34:50.747Z,6.60
2022-11-26T18:37:18.345Z,6.60
2022-11-26T18:39:45.335Z,6.60
2022-11-26T18:45:00.915Z,6.60
2022-11-26T18:47:27.824Z,6.60
2022-11-26T18:49:54.740Z,6.60
2022-11-26T18:52:21.575Z,6.60
2022-11-26T18:54:48.433Z,6.60
2022-11-26T18:57:15.237Z,6.60
2022-11-26T18:59:42.425Z,6.60
2022-11-26T19:02:10.884Z,6.60
2022-11-26T19:04:38.933Z,6.60
2022-11-26T19:07:06.004Z,6.60
2022-11-26T19:09:32.959Z,6.60
2022-11-26T19:11:59.828Z,6.60
2022-11-26T19:14:26.892Z,6.60
2022-11-26T19:16:53.860Z,6.60
2022-11-26T19:19:21.026Z,6.60
2022-11-26T19:21:50.594Z,6.60
2022-11-26T19:24:17.398Z,6.60
2022-11-26T19:26:44.257Z,6.60
2022-11-26T19:29:12.803Z,6.60
2022-11-26T19:31:41.812Z,6.70
2022-11-26T19:34:15.646Z,6.70
2022-11-26T19:36:43.170Z,6.70
2022-11-26T19:39:09.985Z,6.80
2022-11-26T19:41:36.977Z,6.80
2022-11-26T19:44:06.952Z,6.80
2022-11-26T19:46:37.151Z,6.80
2022-11-26T19:49:04.053Z,6.80
2022-11-26T19:51:30.919Z,6.90
2022-11-26T19:53:57.941Z,6.90
2022-11-26T19:56:27.730Z,6.90
2022-11-26T19:58:57.710Z,6.90
2022-11-26T20:01:26.044Z,6.90
2022-11-26T20:03:53.094Z,6.90
2022-11-26T20:06:24.427Z,7.00
2022-11-26T20:08:51.763Z,6.90
2022-11-26T20:11:19.769Z,6.90
2022-11-26T20:13:48.549Z,6.90
2022-11-26T20:16:24.387Z,6.90
2022-11-26T20:18:51.804Z,7.00
2022-11-26T20:21:21.434Z,7.00
2022-11-26T20:23:49.460Z,7.00
2022-11-26T20:26:22.780Z,7.10
2022-11-26T20:28:49.883Z,7.10
2022-11-26T20:31:23.083Z,7.20
2022-11-26T20:33:52.882Z,7.20
2022-11-26T20:36:21.103Z,7.30
2022-11-26T20:38:54.539Z,7.30
2022-11-26T20:41:22.526Z,7.30
2022-11-26T20:43:54.949Z,7.30
2022-11-26T20:46:25.906Z,7.40
2022-11-26T20:48:53.070Z,7.40
2022-11-26T20:51:22.056Z,7.40
2022-11-26T20:53:50.565Z,7.40
2022-11-26T20:56:19.493Z,7.50
2022-11-26T20:58:46.591Z,7.50
2022-11-26T21:01:25.256Z,7.50
2022-11-26T21:03:52.803Z,7.50
2022-11-26T21:06:28.825Z,7.50
2022-11-26T21:09:01.370Z,7.60
2022-11-26T21:11:28.887Z,7.50
2022-11-26T21:13:57.042Z,7.50
2022-11-26T21:16:23.965Z,7.50
2022-11-26T21:18:53.546Z,7.50
2022-11-26T21:21:20.656Z,7.50
2022-11-26T21:23:47.528Z,7.50
2022-11-26T21:26:19.718Z,7.50
2022-11-26T21:28:54.541Z,7.50
2022-11-26T21:31:22.331Z,7.50
2022-11-26T21:33:56.203Z,7.50
2022-11-26T21:36:24.369Z,7.50
2022-11-26T21:38:51.426Z,7.40
2022-11-26T21:41:19.971Z,7.50
2022-11-26T21:43:48.023Z,7.40
2022-11-26T21:46:23.666Z,7.40
2022-11-26T21:48:52.998Z,7.40
2022-11-26T21:51:20.404Z,7.40
2022-11-26T21:53:49.804Z,7.40
2022-11-26T21:56:37.106Z,7.40
2022-11-26T21:59:04.110Z,7.40
2022-11-26T22:01:36.287Z,7.30
2022-11-26T22:04:15.821Z,7.30
2022-11-26T22:06:44.392Z,7.20
2022-11-26T22:09:12.815Z,7.20
2022-11-26T22:11:42.774Z,7.20
2022-11-26T22:14:13.241Z,7.20
2022-11-26T22:16:40.214Z,7.20
2022-11-26T22:19:08.182Z,7.10
2022-11-26T22:21:39.182Z,7.10
2022-11-26T22:24:10.170Z,7.10
2022-11-26T22:26:37.515Z,7.10
2022-11-26T22:29:04.947Z,7.10
2022-11-26T22:31:37.271Z,7.00
2022-11-26T22:34:26.526Z,7.00
2022-11-26T22:36:53.378Z,7.00
2022-11-26T22:39:20.306Z,7.00
2022-11-26T22:41:48.563Z,7.00
2022-11-26T22:44:16.084Z,6.90
2022-11-26T22:46:43.676Z,6.90
2022-11-26T22:49:15.913Z,6.90
2022-11-26T22:51:43.156Z,6.90
2022-11-26T22:54:12.876Z,6.90
2022-11-26T22:56:39.936Z,6.90
2022-11-26T22:59:08.708Z,6.90
2022-11-26T23:01:37.192Z,6.80
2022-11-26T23:04:06.997Z,6.70
2022-11-26T23:06:35.302Z,6.70
2022-11-26T23:09:04.670Z,6.60
2022-11-26T23:11:40.565Z,6.60
2022-11-26T23:14:09.508Z,6.50
2022-11-26T23:16:39.111Z,6.40
2022-11-26T23:19:07.232Z,6.40
2022-11-26T23:21:38.489Z,6.30
2022-11-26T23:24:06.186Z,6.20
2022-11-26T23:26:34.199Z,6.20
2022-11-26T23:29:02.234Z,6.10
2022-11-26T23:31:31.673Z,6.10
2022-11-26T23:33:59.366Z,6.10
2022-11-26T23:36:27.407Z,6.10
2022-11-26T23:38:55.061Z,6.00
2022-11-26T23:41:21.975Z,6.00
2022-11-26T23:43:48.906Z,6.00
2022-11-26T23:46:18.453Z,6.00
2022-11-26T23:48:45.720Z,5.90
2022-11-26T23:51:16.097Z,5.90
2022-11-26T23:53:44.690Z,5.90
2022-11-26T23:56:17.464Z,5.80
2022-11-26T23:58:44.328Z,5.80
